Terminal Aerodrome Forecast
Issued by NWS

Home | Current Version | Previous Version | Text Only | Print | Product List | Glossary On
Versions: 1 2 3 4 5 6 7 8 9 10 11 12 13 14 15 16 17 18 19
000
FTUS41 KALY 260442 AAA
TAFPSF
TAF AMD
KPSF 260442Z 2605/2624 20010G20KT P6SM BKN150
     FM261400 17008KT P6SM SCT060 SCT120
     FM261700 19008G18KT P6SM VCSH BKN060=

USA.gov is the U.S. government's official web portal to all federal, state and local government web resources and services.